Time;durP1;ratioP1;P1;durP2;ratioP2;P2;SDS_P1;SDS_P2;PMS_P1;PMS_P2;Temp;Humidity;BMP_temperature;BMP_pressure;BME280_temperature;BME280_humidity;BME280_pressure;Samples;Min_cycle;Max_cycle;Signal;HPM_P1;HPM_P2
2022/11/03 00:01:09;;;;;;;7.87;3.60;;;;;;;-141.59;100.00;61776.25;5084574;28;20212;-79
2022/11/03 00:03:36;;;;;;;6.33;3.70;;;;;;;-141.59;100.00;61776.25;5085016;28;20269;-79
2022/11/03 00:06:07;;;;;;;4.10;3.27;;;;;;;-141.59;100.00;61776.25;5078931;28;20201;-79
2022/11/03 00:08:42;;;;;;;6.00;3.37;;;;;;;-141.59;100.00;61776.25;5084063;28;20213;-79
2022/11/03 00:11:12;;;;;;;5.90;3.17;;;;;;;-141.59;100.00;61776.25;5077272;28;20304;-79
2022/11/03 00:13:45;;;;;;;4.20;3.20;;;;;;;-141.59;100.00;61776.25;5080200;28;20209;-79
2022/11/03 00:16:13;;;;;;;7.37;3.07;;;;;;;-141.59;100.00;61776.25;5083220;28;20212;-80
2022/11/03 00:18:40;;;;;;;4.67;2.90;;;;;;;-141.59;100.00;61776.25;5082761;28;20220;-79
2022/11/03 00:21:10;;;;;;;5.77;3.07;;;;;;;-141.59;100.00;61776.25;5084171;28;20205;-79
2022/11/03 00:23:39;;;;;;;5.43;3.30;;;;;;;-141.59;100.00;61776.25;5081411;28;20215;-79
2022/11/03 00:26:08;;;;;;;5.50;2.97;;;;;;;-141.59;100.00;61776.25;5080320;28;20216;-79
2022/11/03 00:28:36;;;;;;;7.37;3.40;;;;;;;-141.59;100.00;61776.25;5075524;28;20209;-79
2022/11/03 00:31:08;;;;;;;4.67;3.20;;;;;;;-141.59;100.00;61776.25;5091404;28;20217;-79
2022/11/03 00:33:38;;;;;;;5.30;3.30;;;;;;;-141.59;100.00;61776.25;5085509;28;20201;-79
2022/11/03 00:36:06;;;;;;;6.17;3.10;;;;;;;-141.59;100.00;61776.25;5088421;28;20329;-79
2022/11/03 00:38:34;;;;;;;8.63;3.07;;;;;;;-141.59;100.00;61776.25;5087270;28;20208;-79
2022/11/03 00:41:04;;;;;;;5.80;2.80;;;;;;;-141.59;100.00;61776.25;5088109;28;20213;-79
2022/11/03 00:43:33;;;;;;;4.87;3.13;;;;;;;-141.59;100.00;61776.25;5083042;28;20275;-79
2022/11/03 00:46:00;;;;;;;3.93;3.00;;;;;;;-141.59;100.00;61776.25;5085665;28;20198;-79
2022/11/03 00:48:31;;;;;;;4.77;3.13;;;;;;;-141.59;100.00;61776.25;5081095;28;20259;-79
2022/11/03 00:51:06;;;;;;;6.50;3.13;;;;;;;-141.59;100.00;61776.25;5083094;28;20216;-79
2022/11/03 00:53:35;;;;;;;8.03;3.10;;;;;;;-141.59;100.00;61776.25;5087791;28;20334;-79
2022/11/03 00:56:02;;;;;;;7.40;3.47;;;;;;;-141.59;100.00;61776.25;5079006;28;20209;-79
2022/11/03 00:58:30;;;;;;;6.93;3.00;;;;;;;-141.59;100.00;61776.25;5088788;28;20205;-79
2022/11/03 01:01:06;;;;;;;5.93;3.30;;;;;;;-141.59;100.00;61776.25;5081301;28;20204;-79
2022/11/03 01:03:34;;;;;;;8.40;2.93;;;;;;;-141.59;100.00;61776.25;5089461;28;20320;-79
2022/11/03 01:08:50;;;;;;;6.03;2.97;;;;;;;-141.59;100.00;61776.25;5086889;28;20205;-79
2022/11/03 01:14:05;;;;;;;4.13;3.20;;;;;;;-141.59;100.00;61776.25;5087611;28;20214;-79
2022/11/03 01:16:33;;;;;;;3.93;2.70;;;;;;;-141.59;100.00;61776.25;5087993;28;20212;-79
2022/11/03 01:19:01;;;;;;;5.63;2.97;;;;;;;-141.59;100.00;61776.25;5085621;28;20289;-79
2022/11/03 01:21:30;;;;;;;3.53;2.83;;;;;;;-141.59;100.00;61776.25;5085963;28;20198;-79
2022/11/03 01:24:00;;;;;;;6.73;2.70;;;;;;;-141.59;100.00;61776.25;5083093;28;20224;-79
2022/11/03 01:26:28;;;;;;;8.20;3.07;;;;;;;-141.59;100.00;61776.25;5086140;28;20250;-79
2022/11/03 01:28:55;;;;;;;3.33;2.70;;;;;;;-141.59;100.00;61776.25;5084566;28;20208;-79
2022/11/03 01:31:25;;;;;;;4.67;2.90;;;;;;;-141.59;100.00;61776.25;5090410;28;20216;-79
2022/11/03 01:33:56;;;;;;;4.43;2.77;;;;;;;-141.59;100.00;61776.25;5080513;28;20189;-79
2022/11/03 01:36:23;;;;;;;3.60;2.57;;;;;;;-141.59;100.00;61776.25;5088778;28;20240;-79
2022/11/03 01:38:53;;;;;;;3.80;2.40;;;;;;;-141.59;100.00;61776.25;5084961;28;20201;-79
2022/11/03 01:41:23;;;;;;;3.23;2.50;;;;;;;-141.59;100.00;61776.25;5081627;28;20262;-79
2022/11/03 01:43:52;;;;;;;4.83;2.67;;;;;;;-141.59;100.00;61776.25;5099546;27;20225;-79
2022/11/03 01:46:25;;;;;;;3.83;3.03;;;;;;;-141.59;100.00;61776.25;5091142;28;20205;-79
2022/11/03 01:48:59;;;;;;;3.47;2.63;;;;;;;-141.59;100.00;61776.25;5084953;28;20300;-79
2022/11/03 01:51:29;;;;;;;4.37;2.93;;;;;;;-141.59;100.00;61776.25;5086249;28;20201;-79
2022/11/03 01:54:01;;;;;;;4.27;2.90;;;;;;;-141.59;100.00;61776.25;5082212;28;20224;-79
2022/11/03 01:56:32;;;;;;;5.87;3.00;;;;;;;-141.59;100.00;61776.25;5087170;28;20204;-79
2022/11/03 01:59:00;;;;;;;5.33;2.83;;;;;;;-141.59;100.00;61776.25;5088112;28;20288;-79
2022/11/03 02:01:28;;;;;;;4.10;3.07;;;;;;;-141.59;100.00;61776.25;5085602;28;20200;-79
2022/11/03 02:04:00;;;;;;;5.10;2.80;;;;;;;-141.59;100.00;61776.25;5084943;28;20239;-79
2022/11/03 02:06:30;;;;;;;4.17;2.87;;;;;;;-141.59;100.00;61776.25;5087791;28;20270;-79
2022/11/03 02:09:03;;;;;;;5.60;3.20;;;;;;;-141.59;100.00;61776.25;5082338;28;20242;-79
2022/11/03 02:14:16;;;;;;;3.73;2.70;;;;;;;-141.59;100.00;61776.25;5081064;28;20205;-79
2022/11/03 02:16:47;;;;;;;4.40;2.83;;;;;;;-141.59;100.00;61776.25;5083323;28;20205;-79
2022/11/03 02:19:27;;;;;;;4.93;2.77;;;;;;;-141.59;100.00;61776.25;5086203;28;20229;-79
2022/11/03 02:22:03;;;;;;;3.17;2.70;;;;;;;-141.59;100.00;61776.25;5072103;28;20205;-79
2022/11/03 02:24:41;;;;;;;3.70;2.93;;;;;;;-141.59;100.00;61776.25;5083875;28;20263;-79
2022/11/03 02:27:10;;;;;;;5.57;3.10;;;;;;;-141.59;100.00;61776.25;5082774;28;20214;-79
2022/11/03 02:29:40;;;;;;;6.17;2.80;;;;;;;-141.59;100.00;61776.25;5084358;28;20200;-79
2022/11/03 02:32:13;;;;;;;4.50;2.90;;;;;;;-141.59;100.00;61776.25;5100122;28;20213;-79
2022/11/03 02:34:47;;;;;;;6.00;2.90;;;;;;;-141.59;100.00;61776.25;5084616;28;20228;-79
2022/11/03 02:37:17;;;;;;;5.80;3.23;;;;;;;-141.59;100.00;61776.25;5087980;28;20254;-79
2022/11/03 02:39:47;;;;;;;3.57;2.90;;;;;;;-141.59;100.00;61776.25;5082595;28;20228;-79
2022/11/03 02:42:21;;;;;;;3.60;2.70;;;;;;;-141.59;100.00;61776.25;5084717;28;20228;-79
2022/11/03 02:44:49;;;;;;;3.33;2.80;;;;;;;-141.59;100.00;61776.25;5087308;28;20212;-79
2022/11/03 02:47:17;;;;;;;3.80;2.77;;;;;;;-141.59;100.00;61776.25;5074235;28;20208;-79
2022/11/03 02:49:50;;;;;;;4.43;2.90;;;;;;;-141.59;100.00;61776.25;5084009;28;20240;-79
2022/11/03 02:52:39;;;;;;;5.07;2.77;;;;;;;-141.59;100.00;61776.25;5087834;28;20207;-79
2022/11/03 02:55:15;;;;;;;5.00;2.97;;;;;;;-141.59;100.00;61776.25;5079149;28;20205;-79
2022/11/03 02:57:51;;;;;;;6.87;3.30;;;;;;;-141.59;100.00;61776.25;5084022;28;20212;-79
2022/11/03 03:00:18;;;;;;;9.67;3.27;;;;;;;-141.59;100.00;61776.25;5081586;28;20288;-79
2022/11/03 03:02:55;;;;;;;3.60;2.93;;;;;;;-141.59;100.00;61776.25;5085369;28;20208;-79
2022/11/03 03:05:27;;;;;;;5.30;3.23;;;;;;;-141.59;100.00;61776.25;5085524;28;20296;-79
2022/11/03 03:08:00;;;;;;;5.20;3.20;;;;;;;-141.59;100.00;61776.25;5084685;28;20213;-79
2022/11/03 03:10:32;;;;;;;5.67;3.37;;;;;;;-141.59;100.00;61776.25;5086180;28;20200;-79
2022/11/03 03:13:04;;;;;;;5.67;3.97;;;;;;;-141.59;100.00;61776.25;5087585;28;20197;-79
2022/11/03 03:15:45;;;;;;;4.30;3.17;;;;;;;-141.59;100.00;61776.25;5071976;28;20201;-79
2022/11/03 03:18:19;;;;;;;4.80;2.73;;;;;;;-141.59;100.00;61776.25;5097510;28;20201;-79
2022/11/03 03:20:54;;;;;;;5.83;2.93;;;;;;;-141.59;100.00;61776.25;5083873;28;20304;-79
2022/11/03 03:23:23;;;;;;;6.43;3.57;;;;;;;-141.59;100.00;61776.25;5077473;28;20305;-79
2022/11/03 03:25:59;;;;;;;4.53;2.70;;;;;;;-141.59;100.00;61776.25;5083310;28;20234;-79
2022/11/03 03:28:34;;;;;;;3.93;3.20;;;;;;;-141.59;100.00;61776.25;5085142;28;20213;-79
2022/11/03 03:31:05;;;;;;;5.23;3.13;;;;;;;-141.59;100.00;61776.25;5081652;28;20207;-79
2022/11/03 03:33:33;;;;;;;4.10;2.47;;;;;;;-141.59;100.00;61776.25;5086149;28;20204;-79
2022/11/03 03:36:03;;;;;;;3.53;2.80;;;;;;;-141.59;100.00;61776.25;5078910;28;20241;-79
2022/11/03 03:38:36;;;;;;;5.77;3.37;;;;;;;-141.59;100.00;61776.25;5084957;28;20225;-79
2022/11/03 03:41:05;;;;;;;5.50;2.77;;;;;;;-141.59;100.00;61776.25;5078846;28;20201;-79
2022/11/03 03:43:35;;;;;;;6.60;3.00;;;;;;;-141.59;100.00;61776.25;5082171;28;20213;-79
2022/11/03 03:46:07;;;;;;;3.73;2.93;;;;;;;-141.59;100.00;61776.25;5083159;28;20198;-79
2022/11/03 03:48:35;;;;;;;3.70;2.77;;;;;;;-141.59;100.00;61776.25;5078571;28;20201;-79
2022/11/03 03:51:02;;;;;;;3.87;2.97;;;;;;;-141.59;100.00;61776.25;5079957;28;20204;-79
2022/11/03 03:53:30;;;;;;;4.23;3.00;;;;;;;-141.59;100.00;61776.25;5083977;28;20193;-80
2022/11/03 03:55:59;;;;;;;4.43;2.90;;;;;;;-141.59;100.00;61776.25;5085243;28;20208;-79
2022/11/03 03:58:26;;;;;;;3.30;2.60;;;;;;;-141.59;100.00;61776.25;5087255;28;20205;-79
2022/11/03 04:00:54;;;;;;;7.23;3.37;;;;;;;-141.59;100.00;61776.25;5084357;28;20200;-79
2022/11/03 04:03:23;;;;;;;4.00;3.20;;;;;;;-141.59;100.00;61776.25;5074546;28;20267;-79
2022/11/03 04:05:51;;;;;;;7.40;3.33;;;;;;;-141.59;100.00;61776.25;5084056;28;20204;-79
2022/11/03 04:08:18;;;;;;;5.67;3.20;;;;;;;-141.59;100.00;61776.25;5089361;28;20246;-79
2022/11/03 04:22:15;;;;;;;4.27;2.87;;;;;;;-141.59;100.00;61776.25;5085558;28;20197;-79
2022/11/03 04:24:43;;;;;;;3.77;2.93;;;;;;;-141.59;100.00;61776.25;5088135;28;20228;-79
2022/11/03 04:27:27;;;;;;;6.27;3.60;;;;;;;-141.59;100.00;61776.25;5087756;28;20215;-80
2022/11/03 04:29:58;;;;;;;5.37;3.03;;;;;;;-141.59;100.00;61776.25;5084829;28;20297;-79
2022/11/03 04:32:27;;;;;;;5.00;3.20;;;;;;;-141.59;100.00;61776.25;5088724;28;20205;-79
2022/11/03 04:34:54;;;;;;;3.37;2.90;;;;;;;-141.59;100.00;61776.25;5088688;28;20528;-79
2022/11/03 04:37:21;;;;;;;6.73;3.20;;;;;;;-141.59;100.00;61776.25;5086840;28;20208;-79
2022/11/03 04:39:48;;;;;;;5.93;3.30;;;;;;;-141.59;100.00;61776.25;5086801;28;20208;-79
2022/11/03 04:42:18;;;;;;;5.27;3.10;;;;;;;-141.59;100.00;61776.25;5089025;28;20236;-79
2022/11/03 04:44:46;;;;;;;5.10;3.37;;;;;;;-141.59;100.00;61776.25;5083993;28;20343;-79
2022/11/03 04:47:17;;;;;;;7.53;3.67;;;;;;;-141.59;100.00;61776.25;5079680;28;20265;-79
2022/11/03 04:49:48;;;;;;;6.40;3.40;;;;;;;-141.59;100.00;61776.25;5085266;28;20205;-79
2022/11/03 04:52:17;;;;;;;5.20;3.00;;;;;;;-141.59;100.00;61776.25;5088478;28;20193;-79
2022/11/03 04:54:46;;;;;;;4.17;2.93;;;;;;;-141.59;100.00;61776.25;5083522;28;20217;-79
2022/11/03 04:57:16;;;;;;;6.77;3.50;;;;;;;-141.59;100.00;61776.25;5078014;28;20255;-79
2022/11/03 04:59:48;;;;;;;6.27;3.40;;;;;;;-141.59;100.00;61776.25;5082641;28;20208;-79
2022/11/03 05:02:19;;;;;;;5.53;3.30;;;;;;;-141.59;100.00;61776.25;5088748;28;20215;-79
2022/11/03 05:04:48;;;;;;;5.90;3.70;;;;;;;-141.59;100.00;61776.25;5084721;28;20270;-79
2022/11/03 05:07:28;;;;;;;6.87;3.67;;;;;;;-141.59;100.00;61776.25;5088056;28;20205;-79
2022/11/03 05:09:55;;;;;;;6.63;4.40;;;;;;;-141.59;100.00;61776.25;5082227;28;20246;-79
2022/11/03 05:12:23;;;;;;;10.17;5.00;;;;;;;-141.59;100.00;61776.25;5089289;28;20203;-79
2022/11/03 05:14:50;;;;;;;5.13;4.30;;;;;;;-141.59;100.00;61776.25;5088468;28;20297;-79
2022/11/03 05:17:22;;;;;;;4.67;3.90;;;;;;;-141.59;100.00;61776.25;5092064;28;20201;-79
2022/11/03 05:19:57;;;;;;;7.37;3.77;;;;;;;-141.59;100.00;61776.25;5084111;28;20224;-79
2022/11/03 05:22:28;;;;;;;8.07;4.50;;;;;;;-141.59;100.00;61776.25;5090684;28;20227;-79
2022/11/03 05:24:58;;;;;;;6.13;4.40;;;;;;;-141.59;100.00;61776.25;5087823;28;20273;-79
2022/11/03 05:27:25;;;;;;;6.57;4.23;;;;;;;-141.59;100.00;61776.25;5080180;28;20216;-79
2022/11/03 05:29:55;;;;;;;5.20;4.13;;;;;;;-141.59;100.00;61776.25;5081206;28;20212;-79
2022/11/03 05:32:28;;;;;;;10.57;4.47;;;;;;;-141.59;100.00;61776.25;5083412;28;20202;-79
2022/11/03 05:34:57;;;;;;;8.93;4.70;;;;;;;-141.59;100.00;61776.25;5086911;28;20240;-79
2022/11/03 05:37:28;;;;;;;7.73;4.50;;;;;;;-141.59;100.00;61776.25;5077305;28;20216;-79
2022/11/03 05:39:58;;;;;;;9.53;6.50;;;;;;;-141.59;100.00;61776.25;5082606;28;20294;-79
2022/11/03 05:42:32;;;;;;;8.53;4.80;;;;;;;-141.59;100.00;61776.25;5086646;28;20197;-79
2022/11/03 05:45:02;;;;;;;6.97;4.57;;;;;;;-141.59;100.00;61776.25;5082181;28;20229;-79
2022/11/03 05:47:37;;;;;;;8.90;6.00;;;;;;;-141.59;100.00;61776.25;5088257;28;20269;-79
2022/11/03 05:50:18;;;;;;;5.97;4.73;;;;;;;-141.59;100.00;61776.25;5081413;28;20214;-79
2022/11/03 05:52:50;;;;;;;5.97;4.80;;;;;;;-141.59;100.00;61776.25;5087165;28;20205;-79
2022/11/03 05:55:26;;;;;;;6.77;4.70;;;;;;;-141.59;100.00;61776.25;5085579;28;20236;-79
2022/11/03 05:57:56;;;;;;;11.63;4.53;;;;;;;-141.59;100.00;61776.25;5084864;28;20228;-79
2022/11/03 06:00:30;;;;;;;8.40;5.80;;;;;;;-141.59;100.00;61776.25;5081848;28;20296;-79
2022/11/03 06:02:57;;;;;;;5.53;4.13;;;;;;;-141.59;100.00;61776.25;5086640;28;20200;-79
2022/11/03 06:05:28;;;;;;;10.60;6.40;;;;;;;-141.59;100.00;61776.25;5076116;28;20216;-79
2022/11/03 06:08:00;;;;;;;15.70;9.50;;;;;;;-141.59;100.00;61776.25;5081607;28;20277;-79
2022/11/03 06:10:29;;;;;;;13.30;8.10;;;;;;;-141.59;100.00;61776.25;5097247;28;20201;-79
2022/11/03 06:13:02;;;;;;;7.77;4.67;;;;;;;-141.59;100.00;61776.25;5080827;28;20217;-79
2022/11/03 06:15:33;;;;;;;8.27;4.80;;;;;;;-141.59;100.00;61776.25;5080918;28;20205;-79
2022/11/03 06:18:01;;;;;;;7.47;4.50;;;;;;;-141.59;100.00;61776.25;5076221;28;20232;-79
2022/11/03 06:20:30;;;;;;;17.70;11.97;;;;;;;-141.59;100.00;61776.25;5085396;28;20228;-79
2022/11/03 06:22:57;;;;;;;12.33;7.43;;;;;;;-141.59;100.00;61776.25;5090943;28;20208;-79
2022/11/03 06:25:28;;;;;;;6.57;5.17;;;;;;;-141.59;100.00;61776.25;5083502;28;20232;-79
2022/11/03 06:28:00;;;;;;;8.43;5.57;;;;;;;-141.59;100.00;61776.25;5079839;28;20234;-79
2022/11/03 06:30:32;;;;;;;12.30;8.70;;;;;;;-141.59;100.00;61776.25;5086865;28;20269;-79
2022/11/03 06:33:02;;;;;;;7.77;4.60;;;;;;;-141.59;100.00;61776.25;5079108;28;20208;-79
2022/11/03 06:35:31;;;;;;;9.17;5.50;;;;;;;-141.59;100.00;61776.25;5085250;28;20226;-79
2022/11/03 06:37:59;;;;;;;8.80;5.17;;;;;;;-141.59;100.00;61776.25;5084346;28;20196;-79
2022/11/03 06:40:34;;;;;;;10.60;6.50;;;;;;;-141.59;100.00;61776.25;5082319;28;20201;-79
2022/11/03 06:43:20;;;;;;;6.63;4.70;;;;;;;-141.59;100.00;61776.25;5086777;28;20273;-79
2022/11/03 06:45:50;;;;;;;6.53;4.80;;;;;;;-141.59;100.00;61776.25;5085242;28;20216;-79
2022/11/03 06:48:23;;;;;;;15.90;10.13;;;;;;;-141.59;100.00;61776.25;5081131;28;20208;-80
2022/11/03 06:50:53;;;;;;;15.23;10.83;;;;;;;-141.59;100.00;61776.25;5077551;28;20269;-79
2022/11/03 06:53:23;;;;;;;11.67;9.00;;;;;;;-141.59;100.00;61776.25;5075149;28;20269;-80
2022/11/03 06:55:50;;;;;;;11.10;7.43;;;;;;;-141.59;100.00;61776.25;5090379;28;20201;-80
2022/11/03 06:58:27;;;;;;;10.00;5.20;;;;;;;-141.59;100.00;61776.25;5081471;28;20283;-80
2022/11/03 07:00:57;;;;;;;9.13;5.60;;;;;;;-141.59;100.00;61776.25;5076904;28;20212;-80
2022/11/03 07:03:32;;;;;;;11.47;4.93;;;;;;;-141.59;100.00;61776.25;5080908;28;20205;-80
2022/11/03 07:06:20;;;;;;;8.03;5.17;;;;;;;-141.59;100.00;61776.25;5092416;28;20220;-80
2022/11/03 07:08:51;;;;;;;9.17;4.63;;;;;;;-141.59;100.00;61776.25;5084158;28;20227;-80
2022/11/03 07:11:20;;;;;;;9.20;4.90;;;;;;;-141.59;100.00;61776.25;5079843;28;20209;-80
2022/11/03 07:13:48;;;;;;;11.40;5.13;;;;;;;-141.59;100.00;61776.25;5081189;28;20197;-80
2022/11/03 07:16:22;;;;;;;7.70;5.30;;;;;;;-141.59;100.00;61776.25;5084619;28;20213;-80
2022/11/03 07:18:49;;;;;;;11.83;4.83;;;;;;;-141.59;100.00;61776.25;5081101;28;20244;-80
2022/11/03 07:21:33;;;;;;;6.57;4.80;;;;;;;-141.59;100.00;61776.25;5083704;28;20205;-80
2022/11/03 07:24:03;;;;;;;7.77;4.90;;;;;;;-141.59;100.00;61776.25;5081793;28;20202;-80
2022/11/03 07:26:32;;;;;;;6.73;5.00;;;;;;;-141.59;100.00;61776.25;5099751;28;20217;-80
2022/11/03 07:29:00;;;;;;;7.87;4.87;;;;;;;-141.59;100.00;61776.25;5085138;28;20197;-80
2022/11/03 07:31:28;;;;;;;9.60;5.00;;;;;;;-141.59;100.00;61776.25;5082888;28;20215;-80
2022/11/03 07:33:57;;;;;;;8.67;4.93;;;;;;;-141.59;100.00;61776.25;5081431;28;20217;-80
2022/11/03 07:36:31;;;;;;;10.53;5.30;;;;;;;-141.59;100.00;61776.25;5078383;28;20236;-80
2022/11/03 07:39:01;;;;;;;8.27;5.70;;;;;;;-141.59;100.00;61776.25;5080618;28;20205;-80
2022/11/03 07:41:32;;;;;;;5.40;4.67;;;;;;;-141.59;100.00;61776.25;5076833;28;20221;-80
2022/11/03 07:44:02;;;;;;;7.20;5.50;;;;;;;-141.59;100.00;61776.25;5081044;28;20197;-80
2022/11/03 07:46:29;;;;;;;8.80;5.03;;;;;;;-141.59;100.00;61776.25;5076766;28;20274;-79
2022/11/03 07:48:58;;;;;;;7.77;5.97;;;;;;;-141.59;100.00;61776.25;5083990;28;20280;-79
2022/11/03 07:51:29;;;;;;;10.90;5.40;;;;;;;-141.59;100.00;61776.25;5082328;28;20201;-80
2022/11/03 07:53:58;;;;;;;7.50;5.13;;;;;;;-141.59;100.00;61776.25;5077383;28;20204;-80
2022/11/03 07:56:29;;;;;;;6.23;4.77;;;;;;;-141.59;100.00;61776.25;5081484;28;20512;-79
2022/11/03 07:59:01;;;;;;;8.70;5.10;;;;;;;-141.59;100.00;61776.25;5075798;28;20213;-79
2022/11/03 08:01:31;;;;;;;7.97;4.67;;;;;;;-141.59;100.00;61776.25;5077514;28;20229;-80
2022/11/03 08:04:03;;;;;;;6.83;4.20;;;;;;;-141.59;100.00;61776.25;5080445;28;20339;-80
2022/11/03 08:06:32;;;;;;;6.17;4.33;;;;;;;-141.59;100.00;61776.25;5083494;28;20247;-80
2022/11/03 08:08:59;;;;;;;9.03;4.77;;;;;;;-141.59;100.00;61776.25;5085179;28;20213;-80
2022/11/03 08:11:26;;;;;;;9.83;4.43;;;;;;;-141.59;100.00;61776.25;5073770;28;20202;-80
2022/11/03 08:13:54;;;;;;;6.50;4.60;;;;;;;-141.59;100.00;61776.25;5076854;28;20219;-79
2022/11/03 08:16:22;;;;;;;6.27;4.30;;;;;;;-141.59;100.00;61776.25;5078221;28;20201;-80
2022/11/03 08:18:50;;;;;;;8.07;3.77;;;;;;;-141.59;100.00;61776.25;5074594;28;20371;-79
2022/11/03 08:21:17;;;;;;;6.77;4.53;;;;;;;-141.59;100.00;61776.25;5075521;28;20221;-79
2022/11/03 08:23:48;;;;;;;7.37;4.30;;;;;;;-141.59;100.00;61776.25;5081847;28;20204;-79
2022/11/03 08:26:15;;;;;;;6.20;4.00;;;;;;;-141.59;100.00;61776.25;5088828;28;20281;-79
2022/11/03 08:28:42;;;;;;;7.97;4.40;;;;;;;-141.59;100.00;61776.25;5082072;28;20209;-79
2022/11/03 08:31:09;;;;;;;7.57;4.67;;;;;;;-141.59;100.00;61776.25;5084417;28;20239;-79
2022/11/03 08:33:38;;;;;;;5.87;3.60;;;;;;;-141.59;100.00;61776.25;5086397;28;20205;-79
2022/11/03 08:36:07;;;;;;;5.47;3.53;;;;;;;-141.59;100.00;61776.25;5082938;28;20237;-79
2022/11/03 08:38:35;;;;;;;4.17;3.03;;;;;;;-141.59;100.00;61776.25;5070508;28;20198;-80
2022/11/03 08:41:04;;;;;;;6.53;3.60;;;;;;;-141.59;100.00;61776.25;5088178;28;20211;-80
2022/11/03 08:43:32;;;;;;;7.27;4.03;;;;;;;-141.59;100.00;61776.25;5084277;28;20196;-80
2022/11/03 08:45:59;;;;;;;4.40;2.90;;;;;;;-141.59;100.00;61776.25;5075249;28;20232;-79
2022/11/03 08:48:28;;;;;;;6.60;3.80;;;;;;;-141.59;100.00;61776.25;5082766;28;20217;-79
2022/11/03 08:50:57;;;;;;;4.50;3.80;;;;;;;-141.59;100.00;61776.25;5087139;28;20217;-80
2022/11/03 08:53:25;;;;;;;4.27;3.63;;;;;;;-141.59;100.00;61776.25;5088988;28;20205;-80
2022/11/03 08:55:54;;;;;;;8.00;4.30;;;;;;;-141.59;100.00;61776.25;5077563;28;20205;-80
2022/11/03 08:58:23;;;;;;;6.13;4.50;;;;;;;-141.59;100.00;61776.25;5089874;28;20216;-80
2022/11/03 09:00:50;;;;;;;6.23;4.33;;;;;;;-141.59;100.00;61776.25;5087716;28;20197;-80
2022/11/03 09:03:17;;;;;;;8.47;4.30;;;;;;;-141.59;100.00;61776.25;5091656;28;20208;-80
2022/11/03 09:05:44;;;;;;;6.37;3.83;;;;;;;-141.59;100.00;61776.25;5103941;28;20217;-80
2022/11/03 09:08:11;;;;;;;6.77;4.53;;;;;;;-141.59;100.00;61776.25;5096938;28;20208;-80
2022/11/03 09:10:38;;;;;;;9.97;5.27;;;;;;;-141.59;100.00;61776.25;5094983;28;20205;-79
2022/11/03 09:13:06;;;;;;;5.73;4.43;;;;;;;-141.59;100.00;61776.25;5090881;28;20193;-79
2022/11/03 09:15:35;;;;;;;6.70;3.90;;;;;;;-141.59;100.00;61776.25;5104401;28;20205;-79
2022/11/03 09:18:02;;;;;;;6.83;4.43;;;;;;;-141.59;100.00;61776.25;5093030;28;20212;-80
2022/11/03 09:20:29;;;;;;;4.70;4.20;;;;;;;-141.59;100.00;61776.25;5089437;28;20215;-80
2022/11/03 09:22:56;;;;;;;6.37;3.83;;;;;;;-141.59;100.00;61776.25;5089956;28;20206;-79
2022/11/03 09:25:24;;;;;;;5.23;4.30;;;;;;;-141.59;100.00;61776.25;5092643;28;20228;-79
2022/11/03 09:27:54;;;;;;;7.17;4.50;;;;;;;-141.59;100.00;61776.25;5099237;28;20212;-79
2022/11/03 09:30:21;;;;;;;5.97;4.20;;;;;;;-141.59;100.00;61776.25;5102627;28;20251;-80
2022/11/03 09:32:50;;;;;;;5.93;4.07;;;;;;;-141.59;100.00;61776.25;5094751;28;20200;-80
2022/11/03 09:35:19;;;;;;;8.27;4.30;;;;;;;-141.59;100.00;61776.25;5078086;28;20256;-80
2022/11/03 09:37:46;;;;;;;6.57;4.30;;;;;;;-141.59;100.00;61776.25;5090679;28;20235;-80
2022/11/03 09:40:16;;;;;;;7.80;4.70;;;;;;;-141.59;100.00;61776.25;5102167;28;20284;-80
2022/11/03 09:42:43;;;;;;;6.63;4.97;;;;;;;-141.59;100.00;61776.25;5095101;28;20212;-80
2022/11/03 09:45:11;;;;;;;8.10;4.47;;;;;;;-141.59;100.00;61776.25;5103800;28;20223;-80
2022/11/03 09:47:40;;;;;;;6.37;4.73;;;;;;;-141.59;100.00;61776.25;5091536;28;20208;-80
2022/11/03 09:50:14;;;;;;;6.00;4.70;;;;;;;-141.59;100.00;61776.25;5086387;28;20217;-80
2022/11/03 09:52:42;;;;;;;6.23;4.90;;;;;;;-141.59;100.00;61776.25;5093107;28;20204;-80
2022/11/03 09:55:15;;;;;;;12.37;5.40;;;;;;;-141.59;100.00;61776.25;5085657;28;20223;-80
2022/11/03 09:57:42;;;;;;;5.73;4.70;;;;;;;-141.59;100.00;61776.25;5094678;28;20192;-80
2022/11/03 10:00:18;;;;;;;7.27;4.60;;;;;;;-141.59;100.00;61776.25;5089565;28;20209;-80
2022/11/03 10:02:45;;;;;;;6.57;4.90;;;;;;;-141.59;100.00;61776.25;5085370;28;20204;-80
2022/11/03 10:05:17;;;;;;;8.07;5.33;;;;;;;-141.59;100.00;61776.25;5087886;28;20220;-80
2022/11/03 10:07:45;;;;;;;6.27;4.80;;;;;;;-141.59;100.00;61776.25;5086823;28;20201;-80
2022/11/03 10:10:17;;;;;;;8.13;5.30;;;;;;;-141.59;100.00;61776.25;5079472;28;20200;-80
2022/11/03 10:12:47;;;;;;;8.77;5.53;;;;;;;-141.59;100.00;61776.25;5083399;28;20247;-80
2022/11/03 10:15:15;;;;;;;6.13;4.90;;;;;;;-141.59;100.00;61776.25;5080273;28;20201;-80
2022/11/03 10:17:43;;;;;;;7.67;5.20;;;;;;;-141.59;100.00;61776.25;5082387;28;20216;-80
2022/11/03 10:20:12;;;;;;;6.83;5.20;;;;;;;-141.59;100.00;61776.25;5072853;28;20213;-80
2022/11/03 10:22:42;;;;;;;8.00;5.27;;;;;;;-141.59;100.00;61776.25;5085746;28;20211;-80
2022/11/03 10:25:35;;;;;;;9.03;5.80;;;;;;;-141.59;100.00;61776.25;5080508;28;20301;-80
2022/11/03 10:28:15;;;;;;;7.47;5.20;;;;;;;-141.59;100.00;61776.25;5082331;28;20292;-80
2022/11/03 10:30:49;;;;;;;9.30;5.53;;;;;;;-141.59;100.00;61776.25;5087173;28;20204;-80
2022/11/03 10:33:27;;;;;;;10.03;5.43;;;;;;;-141.59;100.00;61776.25;5099482;28;20208;-80
2022/11/03 10:35:55;;;;;;;11.23;6.37;;;;;;;-141.59;100.00;61776.25;5085046;28;20319;-80
2022/11/03 10:38:29;;;;;;;8.60;6.20;;;;;;;-141.59;100.00;61776.25;5088158;28;20192;-79
2022/11/03 10:40:56;;;;;;;8.17;5.30;;;;;;;-141.59;100.00;61776.25;5077044;28;20264;-79
2022/11/03 10:43:24;;;;;;;7.20;6.10;;;;;;;-141.59;100.00;61776.25;5080054;28;20206;-79
2022/11/03 10:46:11;;;;;;;9.23;5.93;;;;;;;-141.59;100.00;61776.25;5078312;28;20217;-79
2022/11/03 10:48:39;;;;;;;8.80;6.27;;;;;;;-141.59;100.00;61776.25;5082663;28;20205;-79
2022/11/03 10:51:12;;;;;;;9.20;5.30;;;;;;;-141.59;100.00;61776.25;5078581;28;20211;-79
2022/11/03 10:53:44;;;;;;;7.70;5.33;;;;;;;-141.59;100.00;61776.25;5073059;28;20216;-79
2022/11/03 10:56:11;;;;;;;8.03;6.10;;;;;;;-141.59;100.00;61776.25;5080773;28;20200;-79
2022/11/03 10:58:39;;;;;;;9.67;6.10;;;;;;;-141.59;100.00;61776.25;5078189;28;20207;-79
2022/11/03 11:01:10;;;;;;;8.37;6.17;;;;;;;-141.59;100.00;61776.25;5083721;28;20300;-81
2022/11/03 11:03:42;;;;;;;13.33;6.30;;;;;;;-141.59;100.00;61776.25;5079442;28;20208;-82
2022/11/03 11:06:19;;;;;;;9.73;6.47;;;;;;;-141.59;100.00;61776.25;5080166;28;20254;-81
2022/11/03 11:08:52;;;;;;;8.90;6.33;;;;;;;-141.59;100.00;61776.25;5099478;28;20202;-80
2022/11/03 11:11:21;;;;;;;8.50;6.20;;;;;;;-141.59;100.00;61776.25;5105314;28;20243;-79
2022/11/03 11:14:21;;;;;;;9.57;6.17;;;;;;;-141.59;100.00;61776.25;5085264;28;20203;-80
2022/11/03 11:16:50;;;;;;;11.40;6.50;;;;;;;-141.59;100.00;61776.25;5080939;28;20209;-79
2022/11/03 11:19:19;;;;;;;8.07;6.47;;;;;;;-141.59;100.00;61776.25;5077275;28;20221;-79
2022/11/03 11:22:14;;;;;;;8.43;6.43;;;;;;;-141.59;100.00;61776.25;5073444;28;20212;-80
2022/11/03 11:25:00;;;;;;;10.07;6.30;;;;;;;-141.59;100.00;61776.25;5086258;28;20208;-79
2022/11/03 11:27:47;;;;;;;10.47;6.67;;;;;;;-141.59;100.00;61776.25;5082796;28;20224;-80
2022/11/03 11:31:05;;;;;;;12.67;6.93;;;;;;;-141.59;100.00;61776.25;5077270;28;20213;-80
2022/11/03 11:33:35;;;;;;;10.77;6.57;;;;;;;-141.59;100.00;61776.25;5080477;28;20200;-80
2022/11/03 11:36:18;;;;;;;7.43;5.87;;;;;;;-141.59;100.00;61776.25;5085462;28;20283;-80
2022/11/03 11:39:15;;;;;;;8.37;5.77;;;;;;;-141.59;100.00;61776.25;5078948;28;20220;-79
2022/11/03 11:42:12;;;;;;;9.80;6.60;;;;;;;-141.59;100.00;61776.25;5079202;28;20210;-80
2022/11/03 11:44:51;;;;;;;11.63;6.60;;;;;;;-141.59;100.00;61776.25;5052830;28;20304;-80
2022/11/03 11:47:26;;;;;;;8.93;6.23;;;;;;;-141.59;100.00;61776.25;5078549;28;20216;-80